sensor_id;sensor_type;location;lat;lon;timestamp;temperature;humidity
75296;DHT22;64623;44.738;37.804;2023-06-04T00:00:44;20.69;118.99
75296;DHT22;64623;44.738;37.804;2023-06-04T00:01:47;20.70;118.99
75296;DHT22;64623;44.738;37.804;2023-06-04T00:02:49;20.94;118.99
75296;DHT22;64623;44.738;37.804;2023-06-04T00:03:52;20.81;118.99
75296;DHT22;64623;44.738;37.804;2023-06-04T00:04:56;20.85;118.99
75296;DHT22;64623;44.738;37.804;2023-06-04T00:05:58;20.81;118.99
75296;DHT22;64623;44.738;37.804;2023-06-04T00:07:01;20.77;118.99
75296;DHT22;64623;44.738;37.804;2023-06-04T00:08:04;20.90;118.99
75296;DHT22;64623;44.738;37.804;2023-06-04T00:09:07;20.79;118.99
75296;DHT22;64623;44.738;37.804;2023-06-04T00:10:10;20.66;118.99
75296;DHT22;64623;44.738;37.804;2023-06-04T00:11:13;20.71;118.99
75296;DHT22;64623;44.738;37.804;2023-06-04T00:12:16;20.69;118.99
75296;DHT22;64623;44.738;37.804;2023-06-04T00:13:19;20.74;118.99
75296;DHT22;64623;44.738;37.804;2023-06-04T00:14:23;20.64;118.99
75296;DHT22;64623;44.738;37.804;2023-06-04T00:15:26;20.69;118.99
75296;DHT22;64623;44.738;37.804;2023-06-04T00:16:29;20.61;118.99
75296;DHT22;64623;44.738;37.804;2023-06-04T00:17:32;20.80;118.99
75296;DHT22;64623;44.738;37.804;2023-06-04T00:18:35;20.71;118.99
75296;DHT22;64623;44.738;37.804;2023-06-04T00:19:41;20.66;118.99
75296;DHT22;64623;44.738;37.804;2023-06-04T00:20:44;20.85;118.99
75296;DHT22;64623;44.738;37.804;2023-06-04T00:21:46;20.72;118.99
75296;DHT22;64623;44.738;37.804;2023-06-04T00:22:49;20.60;118.99
75296;DHT22;64623;44.738;37.804;2023-06-04T00:23:52;20.65;118.99
75296;DHT22;64623;44.738;37.804;2023-06-04T00:24:55;20.65;118.99
75296;DHT22;64623;44.738;37.804;2023-06-04T00:25:58;20.65;118.99
75296;DHT22;64623;44.738;37.804;2023-06-04T00:27:01;20.77;118.99
75296;DHT22;64623;44.738;37.804;2023-06-04T00:28:03;20.79;118.99
75296;DHT22;64623;44.738;37.804;2023-06-04T00:29:06;20.75;118.99
75296;DHT22;64623;44.738;37.804;2023-06-04T00:30:10;20.59;118.99
75296;DHT22;64623;44.738;37.804;2023-06-04T00:31:13;20.81;118.99
75296;DHT22;64623;44.738;37.804;2023-06-04T00:32:16;20.65;118.99
75296;DHT22;64623;44.738;37.804;2023-06-04T00:33:18;20.76;118.99
75296;DHT22;64623;44.738;37.804;2023-06-04T00:34:21;20.87;118.99
75296;DHT22;64623;44.738;37.804;2023-06-04T00:35:25;20.90;118.99
75296;DHT22;64623;44.738;37.804;2023-06-04T00:36:27;20.91;118.99
75296;DHT22;64623;44.738;37.804;2023-06-04T00:37:30;20.74;118.99
75296;DHT22;64623;44.738;37.804;2023-06-04T00:38:33;20.83;118.99
75296;DHT22;64623;44.738;37.804;2023-06-04T00:39:36;20.81;118.99
75296;DHT22;64623;44.738;37.804;2023-06-04T00:40:39;20.77;118.99
75296;DHT22;64623;44.738;37.804;2023-06-04T00:41:42;20.81;118.99
75296;DHT22;64623;44.738;37.804;2023-06-04T00:42:44;20.68;118.99
75296;DHT22;64623;44.738;37.804;2023-06-04T00:43:47;20.60;118.99
75296;DHT22;64623;44.738;37.804;2023-06-04T00:44:58;20.66;118.99
75296;DHT22;64623;44.738;37.804;2023-06-04T00:46:02;20.57;118.99
75296;DHT22;64623;44.738;37.804;2023-06-04T00:47:07;20.65;118.99
75296;DHT22;64623;44.738;37.804;2023-06-04T00:48:11;20.61;118.99
75296;DHT22;64623;44.738;37.804;2023-06-04T00:49:13;20.68;118.99
75296;DHT22;64623;44.738;37.804;2023-06-04T00:50:16;20.66;118.99
75296;DHT22;64623;44.738;37.804;2023-06-04T00:51:20;20.59;118.99
75296;DHT22;64623;44.738;37.804;2023-06-04T00:52:23;20.58;118.99
75296;DHT22;64623;44.738;37.804;2023-06-04T00:53:27;20.43;118.99
75296;DHT22;64623;44.738;37.804;2023-06-04T00:54:30;20.63;118.99
75296;DHT22;64623;44.738;37.804;2023-06-04T00:55:35;20.43;118.99
75296;DHT22;64623;44.738;37.804;2023-06-04T00:56:38;20.45;118.99
75296;DHT22;64623;44.738;37.804;2023-06-04T00:57:41;20.42;118.99
75296;DHT22;64623;44.738;37.804;2023-06-04T00:58:44;20.45;118.99
75296;DHT22;64623;44.738;37.804;2023-06-04T00:59:48;20.48;118.99
75296;DHT22;64623;44.738;37.804;2023-06-04T01:00:55;20.44;118.99
75296;DHT22;64623;44.738;37.804;2023-06-04T01:02:12;20.43;118.99
75296;DHT22;64623;44.738;37.804;2023-06-04T01:03:18;20.40;118.99
75296;DHT22;64623;44.738;37.804;2023-06-04T01:04:30;20.48;118.99
75296;DHT22;64623;44.738;37.804;2023-06-04T01:05:43;20.48;118.99
75296;DHT22;64623;44.738;37.804;2023-06-04T01:06:50;20.60;118.99
75296;DHT22;64623;44.738;37.804;2023-06-04T01:07:57;20.37;118.99
75296;DHT22;64623;44.738;37.804;2023-06-04T01:09:00;20.22;118.99
75296;DHT22;64623;44.738;37.804;2023-06-04T01:10:04;20.60;118.99
75296;DHT22;64623;44.738;37.804;2023-06-04T01:11:07;20.55;118.99
75296;DHT22;64623;44.738;37.804;2023-06-04T01:12:11;20.44;118.99
75296;DHT22;64623;44.738;37.804;2023-06-04T01:13:14;20.27;118.99
75296;DHT22;64623;44.738;37.804;2023-06-04T01:14:17;20.22;118.99
75296;DHT22;64623;44.738;37.804;2023-06-04T01:15:21;20.15;118.99
75296;DHT22;64623;44.738;37.804;2023-06-04T01:16:25;20.39;118.99
75296;DHT22;64623;44.738;37.804;2023-06-04T01:17:36;20.33;118.99
75296;DHT22;64623;44.738;37.804;2023-06-04T01:18:41;20.28;118.99
75296;DHT22;64623;44.738;37.804;2023-06-04T01:21:08;20.34;118.99
75296;DHT22;64623;44.738;37.804;2023-06-04T01:23:49;20.04;118.99
75296;DHT22;64623;44.738;37.804;2023-06-04T01:25:24;20.27;118.99
75296;DHT22;64623;44.738;37.804;2023-06-04T01:26:30;20.19;118.99
75296;DHT22;64623;44.738;37.804;2023-06-04T01:27:34;20.35;118.99
75296;DHT22;64623;44.738;37.804;2023-06-04T01:28:38;19.92;118.99
75296;DHT22;64623;44.738;37.804;2023-06-04T01:29:41;20.17;118.99
75296;DHT22;64623;44.738;37.804;2023-06-04T01:30:46;20.18;118.99
75296;DHT22;64623;44.738;37.804;2023-06-04T01:31:52;20.22;118.99
75296;DHT22;64623;44.738;37.804;2023-06-04T01:32:57;20.16;118.99
75296;DHT22;64623;44.738;37.804;2023-06-04T01:34:00;20.15;118.99
75296;DHT22;64623;44.738;37.804;2023-06-04T01:35:08;20.15;118.99
75296;DHT22;64623;44.738;37.804;2023-06-04T01:36:13;20.21;118.99
75296;DHT22;64623;44.738;37.804;2023-06-04T01:37:16;20.06;118.99
75296;DHT22;64623;44.738;37.804;2023-06-04T01:38:21;20.34;118.99
75296;DHT22;64623;44.738;37.804;2023-06-04T01:39:24;20.17;118.99
75296;DHT22;64623;44.738;37.804;2023-06-04T01:40:27;20.15;118.99
75296;DHT22;64623;44.738;37.804;2023-06-04T01:41:30;20.21;118.99
75296;DHT22;64623;44.738;37.804;2023-06-04T01:42:34;20.14;118.99
75296;DHT22;64623;44.738;37.804;2023-06-04T01:43:37;20.43;118.99
75296;DHT22;64623;44.738;37.804;2023-06-04T01:44:40;20.30;118.99
75296;DHT22;64623;44.738;37.804;2023-06-04T01:45:44;20.21;118.99
75296;DHT22;64623;44.738;37.804;2023-06-04T01:46:47;20.20;118.99
75296;DHT22;64623;44.738;37.804;2023-06-04T01:47:51;20.30;118.99
75296;DHT22;64623;44.738;37.804;2023-06-04T01:48:54;20.37;118.99
75296;DHT22;64623;44.738;37.804;2023-06-04T01:49:57;20.26;118.99
75296;DHT22;64623;44.738;37.804;2023-06-04T01:51:01;20.35;118.99
75296;DHT22;64623;44.738;37.804;2023-06-04T01:52:05;20.25;118.99
75296;DHT22;64623;44.738;37.804;2023-06-04T01:53:08;20.00;118.99
75296;DHT22;64623;44.738;37.804;2023-06-04T01:54:11;20.13;118.99
75296;DHT22;64623;44.738;37.804;2023-06-04T01:55:15;20.20;118.99
75296;DHT22;64623;44.738;37.804;2023-06-04T01:56:19;20.15;118.99
75296;DHT22;64623;44.738;37.804;2023-06-04T01:57:23;20.21;118.99
75296;DHT22;64623;44.738;37.804;2023-06-04T01:58:27;20.12;118.99
75296;DHT22;64623;44.738;37.804;2023-06-04T01:59:31;20.07;118.99
75296;DHT22;64623;44.738;37.804;2023-06-04T02:00:36;20.06;118.99
75296;DHT22;64623;44.738;37.804;2023-06-04T02:01:39;20.18;118.99
75296;DHT22;64623;44.738;37.804;2023-06-04T02:02:43;19.96;118.99
75296;DHT22;64623;44.738;37.804;2023-06-04T02:03:49;20.09;118.99
75296;DHT22;64623;44.738;37.804;2023-06-04T02:04:54;20.03;118.99
75296;DHT22;64623;44.738;37.804;2023-06-04T02:05:57;20.19;118.99
75296;DHT22;64623;44.738;37.804;2023-06-04T02:07:00;20.26;118.99
75296;DHT22;64623;44.738;37.804;2023-06-04T02:08:04;20.01;118.99
75296;DHT22;64623;44.738;37.804;2023-06-04T02:09:07;19.98;118.99
75296;DHT22;64623;44.738;37.804;2023-06-04T02:10:12;20.06;118.99
75296;DHT22;64623;44.738;37.804;2023-06-04T02:11:15;20.20;118.99
75296;DHT22;64623;44.738;37.804;2023-06-04T02:12:18;20.19;118.99
75296;DHT22;64623;44.738;37.804;2023-06-04T02:13:21;20.19;118.99
75296;DHT22;64623;44.738;37.804;2023-06-04T02:14:25;20.06;118.99
75296;DHT22;64623;44.738;37.804;2023-06-04T02:15:31;20.09;118.99
75296;DHT22;64623;44.738;37.804;2023-06-04T02:16:34;20.24;118.99
75296;DHT22;64623;44.738;37.804;2023-06-04T02:17:37;20.25;118.99
75296;DHT22;64623;44.738;37.804;2023-06-04T02:18:45;20.16;118.99
75296;DHT22;64623;44.738;37.804;2023-06-04T02:19:49;20.39;118.99
75296;DHT22;64623;44.738;37.804;2023-06-04T02:20:53;20.32;118.99
75296;DHT22;64623;44.738;37.804;2023-06-04T02:21:56;19.97;118.99
75296;DHT22;64623;44.738;37.804;2023-06-04T02:22:59;20.30;118.99
75296;DHT22;64623;44.738;37.804;2023-06-04T02:24:02;20.11;118.99
75296;DHT22;64623;44.738;37.804;2023-06-04T02:25:05;20.17;118.99
75296;DHT22;64623;44.738;37.804;2023-06-04T02:26:11;20.15;118.99
75296;DHT22;64623;44.738;37.804;2023-06-04T02:27:14;20.34;118.99
75296;DHT22;64623;44.738;37.804;2023-06-04T02:28:18;19.95;118.99
75296;DHT22;64623;44.738;37.804;2023-06-04T02:29:21;20.02;118.99
75296;DHT22;64623;44.738;37.804;2023-06-04T02:30:24;20.13;118.99
75296;DHT22;64623;44.738;37.804;2023-06-04T02:31:28;20.19;118.99
75296;DHT22;64623;44.738;37.804;2023-06-04T02:32:31;19.86;118.99
75296;DHT22;64623;44.738;37.804;2023-06-04T02:33:37;20.16;118.99
75296;DHT22;64623;44.738;37.804;2023-06-04T02:34:40;20.19;118.99
75296;DHT22;64623;44.738;37.804;2023-06-04T02:35:43;20.16;118.99
75296;DHT22;64623;44.738;37.804;2023-06-04T02:36:47;20.09;118.99
75296;DHT22;64623;44.738;37.804;2023-06-04T02:37:51;20.13;118.99
75296;DHT22;64623;44.738;37.804;2023-06-04T02:38:54;20.22;118.99
75296;DHT22;64623;44.738;37.804;2023-06-04T02:39:57;20.31;118.99
75296;DHT22;64623;44.738;37.804;2023-06-04T02:41:00;20.14;118.99
75296;DHT22;64623;44.738;37.804;2023-06-04T02:42:03;20.29;118.99
75296;DHT22;64623;44.738;37.804;2023-06-04T02:43:06;20.24;118.99
75296;DHT22;64623;44.738;37.804;2023-06-04T02:44:09;20.33;118.99
75296;DHT22;64623;44.738;37.804;2023-06-04T02:45:12;20.14;118.99
75296;DHT22;64623;44.738;37.804;2023-06-04T02:46:15;20.17;118.99
75296;DHT22;64623;44.738;37.804;2023-06-04T02:47:18;20.31;118.99
75296;DHT22;64623;44.738;37.804;2023-06-04T02:48:22;20.34;118.99
75296;DHT22;64623;44.738;37.804;2023-06-04T02:49:25;20.28;118.99
75296;DHT22;64623;44.738;37.804;2023-06-04T02:50:28;20.22;118.99
75296;DHT22;64623;44.738;37.804;2023-06-04T02:51:31;20.43;118.99
75296;DHT22;64623;44.738;37.804;2023-06-04T02:52:35;20.40;118.99
75296;DHT22;64623;44.738;37.804;2023-06-04T02:53:39;20.27;118.99
75296;DHT22;64623;44.738;37.804;2023-06-04T02:54:43;20.37;118.99
75296;DHT22;64623;44.738;37.804;2023-06-04T02:55:46;20.35;118.99
75296;DHT22;64623;44.738;37.804;2023-06-04T02:56:49;20.43;118.99
75296;DHT22;64623;44.738;37.804;2023-06-04T02:57:52;20.44;118.99
75296;DHT22;64623;44.738;37.804;2023-06-04T02:58:55;20.26;118.99
75296;DHT22;64623;44.738;37.804;2023-06-04T02:59:59;20.43;118.99
75296;DHT22;64623;44.738;37.804;2023-06-04T03:01:03;20.48;118.99
75296;DHT22;64623;44.738;37.804;2023-06-04T03:02:06;20.30;118.99
75296;DHT22;64623;44.738;37.804;2023-06-04T03:03:09;20.50;118.99
75296;DHT22;64623;44.738;37.804;2023-06-04T03:04:12;20.55;118.99
75296;DHT22;64623;44.738;37.804;2023-06-04T03:05:18;20.54;118.99
75296;DHT22;64623;44.738;37.804;2023-06-04T03:06:22;20.63;118.99
75296;DHT22;64623;44.738;37.804;2023-06-04T03:07:25;20.51;118.99
75296;DHT22;64623;44.738;37.804;2023-06-04T03:08:28;20.42;118.99
75296;DHT22;64623;44.738;37.804;2023-06-04T03:09:31;20.62;118.99
75296;DHT22;64623;44.738;37.804;2023-06-04T03:10:34;20.50;118.99
75296;DHT22;64623;44.738;37.804;2023-06-04T03:11:37;20.40;118.99
75296;DHT22;64623;44.738;37.804;2023-06-04T03:12:41;20.64;118.99
75296;DHT22;64623;44.738;37.804;2023-06-04T03:13:45;20.46;118.99
75296;DHT22;64623;44.738;37.804;2023-06-04T03:14:48;20.70;118.99
75296;DHT22;64623;44.738;37.804;2023-06-04T03:15:51;20.50;118.99
75296;DHT22;64623;44.738;37.804;2023-06-04T03:16:55;20.50;118.99
75296;DHT22;64623;44.738;37.804;2023-06-04T03:17:59;20.66;118.99
75296;DHT22;64623;44.738;37.804;2023-06-04T03:19:02;20.61;118.99
75296;DHT22;64623;44.738;37.804;2023-06-04T03:20:06;20.60;118.99
75296;DHT22;64623;44.738;37.804;2023-06-04T03:21:10;20.63;118.99
75296;DHT22;64623;44.738;37.804;2023-06-04T03:22:16;20.58;118.99
75296;DHT22;64623;44.738;37.804;2023-06-04T03:23:20;20.49;118.99
75296;DHT22;64623;44.738;37.804;2023-06-04T03:24:23;20.64;118.99
75296;DHT22;64623;44.738;37.804;2023-06-04T03:25:27;20.53;118.99
75296;DHT22;64623;44.738;37.804;2023-06-04T03:26:30;20.49;118.99
75296;DHT22;64623;44.738;37.804;2023-06-04T03:27:35;20.68;118.99
75296;DHT22;64623;44.738;37.804;2023-06-04T03:28:40;20.41;118.99
75296;DHT22;64623;44.738;37.804;2023-06-04T03:29:44;20.45;118.99
75296;DHT22;64623;44.738;37.804;2023-06-04T03:30:49;20.70;118.99
75296;DHT22;64623;44.738;37.804;2023-06-04T03:31:54;20.58;118.99
75296;DHT22;64623;44.738;37.804;2023-06-04T03:32:59;20.50;118.99
75296;DHT22;64623;44.738;37.804;2023-06-04T03:34:03;20.59;118.99
75296;DHT22;64623;44.738;37.804;2023-06-04T03:35:07;20.60;118.99
75296;DHT22;64623;44.738;37.804;2023-06-04T03:36:10;20.65;118.99
75296;DHT22;64623;44.738;37.804;2023-06-04T03:37:13;20.54;118.99
75296;DHT22;64623;44.738;37.804;2023-06-04T03:38:16;20.56;118.99
75296;DHT22;64623;44.738;37.804;2023-06-04T03:39:19;20.53;118.99
75296;DHT22;64623;44.738;37.804;2023-06-04T03:40:23;20.50;118.99
75296;DHT22;64623;44.738;37.804;2023-06-04T03:41:27;20.45;118.99
75296;DHT22;64623;44.738;37.804;2023-06-04T03:42:31;20.46;118.99
75296;DHT22;64623;44.738;37.804;2023-06-04T03:43:34;20.53;118.99
75296;DHT22;64623;44.738;37.804;2023-06-04T03:44:41;20.37;118.99
75296;DHT22;64623;44.738;37.804;2023-06-04T03:45:44;20.41;118.99
75296;DHT22;64623;44.738;37.804;2023-06-04T03:46:51;20.36;118.99
75296;DHT22;64623;44.738;37.804;2023-06-04T03:47:54;20.36;118.99
75296;DHT22;64623;44.738;37.804;2023-06-04T03:48:57;20.41;118.99
75296;DHT22;64623;44.738;37.804;2023-06-04T03:50:02;20.32;118.99
75296;DHT22;64623;44.738;37.804;2023-06-04T03:51:05;20.37;118.99
75296;DHT22;64623;44.738;37.804;2023-06-04T03:52:09;20.32;118.99
75296;DHT22;64623;44.738;37.804;2023-06-04T03:53:14;20.36;118.99
75296;DHT22;64623;44.738;37.804;2023-06-04T03:54:17;20.34;118.99
75296;DHT22;64623;44.738;37.804;2023-06-04T03:55:23;20.16;118.99
75296;DHT22;64623;44.738;37.804;2023-06-04T03:56:27;20.22;118.99
75296;DHT22;64623;44.738;37.804;2023-06-04T03:57:31;20.28;118.99
75296;DHT22;64623;44.738;37.804;2023-06-04T03:58:36;20.32;118.99
75296;DHT22;64623;44.738;37.804;2023-06-04T03:59:40;20.25;118.99
75296;DHT22;64623;44.738;37.804;2023-06-04T04:00:43;20.42;118.99
75296;DHT22;64623;44.738;37.804;2023-06-04T04:01:47;20.20;118.99
75296;DHT22;64623;44.738;37.804;2023-06-04T04:02:50;20.04;118.99
75296;DHT22;64623;44.738;37.804;2023-06-04T04:03:58;20.41;118.99
75296;DHT22;64623;44.738;37.804;2023-06-04T04:05:01;20.44;118.99
75296;DHT22;64623;44.738;37.804;2023-06-04T04:06:05;20.24;118.99
75296;DHT22;64623;44.738;37.804;2023-06-04T04:07:09;20.17;118.99
75296;DHT22;64623;44.738;37.804;2023-06-04T04:08:13;20.21;118.99
75296;DHT22;64623;44.738;37.804;2023-06-04T04:09:19;20.31;118.99
75296;DHT22;64623;44.738;37.804;2023-06-04T04:10:22;20.16;118.99
75296;DHT22;64623;44.738;37.804;2023-06-04T04:11:25;20.04;118.99
75296;DHT22;64623;44.738;37.804;2023-06-04T04:12:29;20.29;118.99
75296;DHT22;64623;44.738;37.804;2023-06-04T04:13:32;20.14;118.99
75296;DHT22;64623;44.738;37.804;2023-06-04T04:14:35;20.30;118.99
75296;DHT22;64623;44.738;37.804;2023-06-04T04:15:38;20.33;118.99
75296;DHT22;64623;44.738;37.804;2023-06-04T04:16:41;20.43;118.99
75296;DHT22;64623;44.738;37.804;2023-06-04T04:17:44;20.47;118.99
75296;DHT22;64623;44.738;37.804;2023-06-04T04:18:48;20.54;118.99
75296;DHT22;64623;44.738;37.804;2023-06-04T04:19:51;20.44;118.99
75296;DHT22;64623;44.738;37.804;2023-06-04T04:20:54;20.64;118.99
75296;DHT22;64623;44.738;37.804;2023-06-04T04:21:58;20.66;118.99
75296;DHT22;64623;44.738;37.804;2023-06-04T04:23:02;20.57;118.99
75296;DHT22;64623;44.738;37.804;2023-06-04T04:24:06;20.61;118.99
75296;DHT22;64623;44.738;37.804;2023-06-04T04:25:10;20.51;118.99
75296;DHT22;64623;44.738;37.804;2023-06-04T04:26:14;20.72;118.99
75296;DHT22;64623;44.738;37.804;2023-06-04T04:27:22;20.89;118.99
75296;DHT22;64623;44.738;37.804;2023-06-04T04:28:26;21.01;118.99
75296;DHT22;64623;44.738;37.804;2023-06-04T04:29:32;20.87;118.99
75296;DHT22;64623;44.738;37.804;2023-06-04T04:30:37;20.93;118.99
75296;DHT22;64623;44.738;37.804;2023-06-04T04:31:42;21.02;118.99
75296;DHT22;64623;44.738;37.804;2023-06-04T04:32:45;20.91;118.99
75296;DHT22;64623;44.738;37.804;2023-06-04T04:33:56;21.16;118.99
75296;DHT22;64623;44.738;37.804;2023-06-04T04:34:59;21.11;118.99
75296;DHT22;64623;44.738;37.804;2023-06-04T04:36:09;21.01;118.99
75296;DHT22;64623;44.738;37.804;2023-06-04T04:37:19;20.90;118.99
75296;DHT22;64623;44.738;37.804;2023-06-04T04:38:26;21.11;118.99
75296;DHT22;64623;44.738;37.804;2023-06-04T04:39:36;20.94;118.99
75296;DHT22;64623;44.738;37.804;2023-06-04T04:40:39;20.95;118.99
75296;DHT22;64623;44.738;37.804;2023-06-04T04:41:44;21.08;118.99
75296;DHT22;64623;44.738;37.804;2023-06-04T04:42:48;21.01;118.99
75296;DHT22;64623;44.738;37.804;2023-06-04T04:43:53;20.87;118.99
75296;DHT22;64623;44.738;37.804;2023-06-04T04:45:01;21.27;118.99
75296;DHT22;64623;44.738;37.804;2023-06-04T04:46:09;20.68;118.99
75296;DHT22;64623;44.738;37.804;2023-06-04T04:47:14;20.95;118.99
75296;DHT22;64623;44.738;37.804;2023-06-04T04:48:17;21.19;118.99
75296;DHT22;64623;44.738;37.804;2023-06-04T04:49:21;21.00;118.99
75296;DHT22;64623;44.738;37.804;2023-06-04T04:50:23;21.01;118.99
75296;DHT22;64623;44.738;37.804;2023-06-04T04:51:27;21.02;118.99
75296;DHT22;64623;44.738;37.804;2023-06-04T04:52:32;21.21;118.99
75296;DHT22;64623;44.738;37.804;2023-06-04T04:53:36;21.02;118.99
75296;DHT22;64623;44.738;37.804;2023-06-04T04:54:39;21.09;118.99
75296;DHT22;64623;44.738;37.804;2023-06-04T04:55:42;21.33;118.99
75296;DHT22;64623;44.738;37.804;2023-06-04T04:56:45;21.15;118.99
75296;DHT22;64623;44.738;37.804;2023-06-04T04:57:50;21.00;118.99
75296;DHT22;64623;44.738;37.804;2023-06-04T04:58:56;21.05;118.99
75296;DHT22;64623;44.738;37.804;2023-06-04T05:00:02;21.09;118.99
75296;DHT22;64623;44.738;37.804;2023-06-04T05:01:08;21.09;118.99
75296;DHT22;64623;44.738;37.804;2023-06-04T05:02:11;21.07;118.99
75296;DHT22;64623;44.738;37.804;2023-06-04T05:03:15;21.00;118.99
75296;DHT22;64623;44.738;37.804;2023-06-04T05:04:18;21.04;118.99
75296;DHT22;64623;44.738;37.804;2023-06-04T05:05:22;20.85;118.99
75296;DHT22;64623;44.738;37.804;2023-06-04T05:06:26;21.01;118.99
75296;DHT22;64623;44.738;37.804;2023-06-04T05:07:29;21.15;118.99
75296;DHT22;64623;44.738;37.804;2023-06-04T05:08:33;21.14;118.99
75296;DHT22;64623;44.738;37.804;2023-06-04T05:09:36;20.93;118.99
75296;DHT22;64623;44.738;37.804;2023-06-04T05:10:40;21.01;118.99
75296;DHT22;64623;44.738;37.804;2023-06-04T05:11:44;20.74;118.99
75296;DHT22;64623;44.738;37.804;2023-06-04T05:12:55;20.90;118.99
75296;DHT22;64623;44.738;37.804;2023-06-04T05:14:02;20.91;118.99
75296;DHT22;64623;44.738;37.804;2023-06-04T05:15:06;20.78;118.99
75296;DHT22;64623;44.738;37.804;2023-06-04T05:16:09;20.93;118.99
75296;DHT22;64623;44.738;37.804;2023-06-04T05:17:16;21.00;118.99
75296;DHT22;64623;44.738;37.804;2023-06-04T05:18:20;21.13;118.99
75296;DHT22;64623;44.738;37.804;2023-06-04T05:19:25;20.86;118.99
75296;DHT22;64623;44.738;37.804;2023-06-04T05:20:28;20.87;118.99
75296;DHT22;64623;44.738;37.804;2023-06-04T05:21:31;20.75;118.99
75296;DHT22;64623;44.738;37.804;2023-06-04T05:22:39;20.91;118.99
75296;DHT22;64623;44.738;37.804;2023-06-04T05:23:43;20.85;118.99
75296;DHT22;64623;44.738;37.804;2023-06-04T05:24:52;20.87;118.99
75296;DHT22;64623;44.738;37.804;2023-06-04T05:25:55;20.88;118.99
75296;DHT22;64623;44.738;37.804;2023-06-04T05:26:58;20.66;118.99
75296;DHT22;64623;44.738;37.804;2023-06-04T05:28:01;20.89;118.99
75296;DHT22;64623;44.738;37.804;2023-06-04T05:29:06;21.08;118.99
75296;DHT22;64623;44.738;37.804;2023-06-04T05:30:13;20.85;118.99
75296;DHT22;64623;44.738;37.804;2023-06-04T05:31:16;20.64;118.99
75296;DHT22;64623;44.738;37.804;2023-06-04T05:32:21;20.89;118.99
75296;DHT22;64623;44.738;37.804;2023-06-04T05:33:26;20.70;118.99
75296;DHT22;64623;44.738;37.804;2023-06-04T05:34:34;20.94;118.99
75296;DHT22;64623;44.738;37.804;2023-06-04T05:35:40;20.92;118.99
75296;DHT22;64623;44.738;37.804;2023-06-04T05:36:44;20.84;118.99
75296;DHT22;64623;44.738;37.804;2023-06-04T05:37:47;20.77;118.99
75296;DHT22;64623;44.738;37.804;2023-06-04T05:39:00;20.58;118.99
75296;DHT22;64623;44.738;37.804;2023-06-04T05:40:10;20.73;118.99
75296;DHT22;64623;44.738;37.804;2023-06-04T05:41:14;20.85;118.99
75296;DHT22;64623;44.738;37.804;2023-06-04T05:42:18;20.71;118.99
75296;DHT22;64623;44.738;37.804;2023-06-04T05:43:22;20.65;118.99
75296;DHT22;64623;44.738;37.804;2023-06-04T05:44:25;20.92;118.99
75296;DHT22;64623;44.738;37.804;2023-06-04T05:45:28;20.77;118.99
75296;DHT22;64623;44.738;37.804;2023-06-04T05:46:31;20.79;118.99
75296;DHT22;64623;44.738;37.804;2023-06-04T05:47:34;21.00;118.99
75296;DHT22;64623;44.738;37.804;2023-06-04T05:48:37;20.92;118.99
75296;DHT22;64623;44.738;37.804;2023-06-04T05:49:40;21.08;118.99
75296;DHT22;64623;44.738;37.804;2023-06-04T05:50:44;20.85;118.99
75296;DHT22;64623;44.738;37.804;2023-06-04T05:51:47;20.83;118.99
75296;DHT22;64623;44.738;37.804;2023-06-04T05:52:50;20.84;118.99
75296;DHT22;64623;44.738;37.804;2023-06-04T05:53:53;20.71;118.99
75296;DHT22;64623;44.738;37.804;2023-06-04T05:54:57;20.99;118.99
75296;DHT22;64623;44.738;37.804;2023-06-04T05:56:00;21.05;118.99
75296;DHT22;64623;44.738;37.804;2023-06-04T05:57:04;21.02;118.99
75296;DHT22;64623;44.738;37.804;2023-06-04T05:58:07;21.05;118.99
75296;DHT22;64623;44.738;37.804;2023-06-04T05:59:10;20.83;118.99
75296;DHT22;64623;44.738;37.804;2023-06-04T06:00:13;20.98;118.99
75296;DHT22;64623;44.738;37.804;2023-06-04T06:01:16;21.09;118.99
75296;DHT22;64623;44.738;37.804;2023-06-04T06:02:19;20.81;118.99
75296;DHT22;64623;44.738;37.804;2023-06-04T06:03:23;21.01;118.99
75296;DHT22;64623;44.738;37.804;2023-06-04T06:04:26;20.90;118.99
75296;DHT22;64623;44.738;37.804;2023-06-04T06:05:28;21.03;118.99
75296;DHT22;64623;44.738;37.804;2023-06-04T06:06:31;21.03;118.99
75296;DHT22;64623;44.738;37.804;2023-06-04T06:07:35;21.08;118.99
75296;DHT22;64623;44.738;37.804;2023-06-04T06:08:38;21.11;118.99
75296;DHT22;64623;44.738;37.804;2023-06-04T06:09:41;21.14;118.99
75296;DHT22;64623;44.738;37.804;2023-06-04T06:10:44;21.06;118.99
75296;DHT22;64623;44.738;37.804;2023-06-04T06:11:47;21.23;118.99
75296;DHT22;64623;44.738;37.804;2023-06-04T06:12:50;21.15;118.99
75296;DHT22;64623;44.738;37.804;2023-06-04T06:13:53;21.22;118.99
75296;DHT22;64623;44.738;37.804;2023-06-04T06:14:56;21.18;118.99
75296;DHT22;64623;44.738;37.804;2023-06-04T06:15:59;21.20;118.99
75296;DHT22;64623;44.738;37.804;2023-06-04T06:17:02;21.05;118.99
75296;DHT22;64623;44.738;37.804;2023-06-04T06:18:06;21.22;118.99
75296;DHT22;64623;44.738;37.804;2023-06-04T06:19:08;21.10;118.99
75296;DHT22;64623;44.738;37.804;2023-06-04T06:20:11;21.00;118.99
75296;DHT22;64623;44.738;37.804;2023-06-04T06:21:15;20.98;118.99
75296;DHT22;64623;44.738;37.804;2023-06-04T06:22:18;21.17;118.99
75296;DHT22;64623;44.738;37.804;2023-06-04T06:23:21;21.25;118.99
75296;DHT22;64623;44.738;37.804;2023-06-04T06:24:26;21.03;118.99
75296;DHT22;64623;44.738;37.804;2023-06-04T06:25:29;21.28;118.99
75296;DHT22;64623;44.738;37.804;2023-06-04T06:26:37;21.34;118.99
75296;DHT22;64623;44.738;37.804;2023-06-04T06:27:42;21.30;118.99
75296;DHT22;64623;44.738;37.804;2023-06-04T06:28:47;21.34;118.99
75296;DHT22;64623;44.738;37.804;2023-06-04T06:29:50;21.53;118.99
75296;DHT22;64623;44.738;37.804;2023-06-04T06:30:53;21.37;118.99
75296;DHT22;64623;44.738;37.804;2023-06-04T06:31:56;21.25;118.99
75296;DHT22;64623;44.738;37.804;2023-06-04T06:32:59;21.57;118.99
75296;DHT22;64623;44.738;37.804;2023-06-04T06:34:02;21.55;118.99
75296;DHT22;64623;44.738;37.804;2023-06-04T06:35:05;21.67;118.99
75296;DHT22;64623;44.738;37.804;2023-06-04T06:36:10;21.83;118.99